Time;durP1;ratioP1;P1;durP2;ratioP2;P2;SDS_P1;SDS_P2;PMS_P1;PMS_P2;Temp;Humidity;BMP_temperature;BMP_pressure;BME280_temperature;BME280_humidity;BME280_pressure;Samples;Min_cycle;Max_cycle;Signal;HPM_P1;HPM_P2
2023/08/14 00:02:22;;;;;;;;;;;;;;;16.94;72.40;101605.95;108440;1256;71773;-89
2023/08/14 00:04:49;;;;;;;;;;;;;;;16.94;72.45;101611.27;108197;1256;124812;-89
2023/08/14 00:07:16;;;;;;;;;;;;;;;16.92;72.57;101607.01;107487;1257;71839;-88
2023/08/14 00:09:43;;;;;;;;;;;;;;;16.93;72.55;101613.76;107697;1256;59396;-88
2023/08/14 00:12:12;;;;;;;;;;;;;;;16.94;72.70;101613.05;107902;1257;124678;-88
2023/08/14 00:14:39;;;;;;;;;;;;;;;16.93;72.75;101611.27;108007;1256;72490;-88
2023/08/14 00:17:06;;;;;;;;;;;;;;;16.94;72.81;101612.16;107722;1257;124653;-87
2023/08/14 00:19:41;;;;;;;;;;;;;;;16.95;73.00;101608.09;107694;1257;71518;-87
2023/08/14 00:22:08;;;;;;;;;;;;;;;16.97;73.10;101604.56;107975;1258;123677;-88
2023/08/14 00:24:43;;;;;;;;;;;;;;;16.98;73.06;101603.00;107945;1256;61452;-88
2023/08/14 00:27:10;;;;;;;;;;;;;;;17.00;73.19;101604.44;107968;1262;72952;-89
2023/08/14 00:29:37;;;;;;;;;;;;;;;17.02;73.20;101602.34;107770;1256;124108;-88
2023/08/14 00:32:07;;;;;;;;;;;;;;;17.04;73.26;101604.30;107688;1263;73161;-88
2023/08/14 00:34:38;;;;;;;;;;;;;;;17.05;73.31;101602.02;107631;1257;125081;-88
2023/08/14 00:37:07;;;;;;;;;;;;;;;17.05;73.26;101605.20;108243;1257;60023;-89
2023/08/14 00:39:34;;;;;;;;;;;;;;;17.06;73.31;101606.45;108068;1257;73272;-89
2023/08/14 00:42:01;;;;;;;;;;;;;;;17.06;73.39;101605.57;107960;1257;124210;-89
2023/08/14 00:44:30;;;;;;;;;;;;;;;17.07;73.53;101608.24;108413;1257;71929;-89
2023/08/14 00:47:00;;;;;;;;;;;;;;;17.07;73.46;101608.08;108692;1259;123978;-89
2023/08/14 00:49:29;;;;;;;;;;;;;;;17.09;73.59;101604.72;108687;1259;60096;-89
2023/08/14 00:51:58;;;;;;;;;;;;;;;17.10;73.51;101603.50;108743;1259;73092;-88
2023/08/14 00:54:25;;;;;;;;;;;;;;;17.12;73.62;101600.49;108739;1259;67066;-88
2023/08/14 00:56:52;;;;;;;;;;;;;;;17.13;73.72;101600.86;108978;1260;72612;-89
2023/08/14 00:59:19;;;;;;;;;;;;;;;17.16;73.75;101598.95;109077;1257;123199;-88
2023/08/14 01:01:46;;;;;;;;;;;;;;;17.19;73.79;101598.80;109009;1257;58843;-89
2023/08/14 01:04:13;;;;;;;;;;;;;;;17.22;73.77;101602.73;109119;1257;123154;-88
2023/08/14 01:06:40;;;;;;;;;;;;;;;17.22;73.83;101597.95;109139;1262;67673;-89
2023/08/14 01:09:07;;;;;;;;;;;;;;;17.24;73.84;101603.99;108975;1257;71354;-88
2023/08/14 01:11:38;;;;;;;;;;;;;;;17.24;73.82;101603.66;108740;1262;125424;-90
2023/08/14 01:14:15;;;;;;;;;;;;;;;17.25;73.84;101604.56;109149;1261;58791;-89
2023/08/14 01:16:46;;;;;;;;;;;;;;;17.25;73.81;101604.19;108893;1257;125109;-90
2023/08/14 01:19:30;;;;;;;;;;;;;;;17.24;73.82;101603.13;108821;1257;67148;-90
2023/08/14 01:22:04;;;;;;;;;;;;;;;17.21;73.90;101600.77;108799;1257;71969;-90
2023/08/14 01:24:44;;;;;;;;;;;;;;;17.18;73.83;101601.64;108698;1260;59377;-89
2023/08/14 01:27:11;;;;;;;;;;;;;;;17.14;73.90;101599.09;108768;1261;60564;-90
2023/08/14 01:29:39;;;;;;;;;;;;;;;17.10;73.92;101607.73;108670;1258;124463;-90
2023/08/14 01:32:06;;;;;;;;;;;;;;;17.07;73.99;101611.62;108859;1259;67084;-89
2023/08/14 01:34:35;;;;;;;;;;;;;;;17.03;74.11;101610.49;108422;1259;124952;-90
2023/08/14 01:37:12;;;;;;;;;;;;;;;17.00;74.22;101614.89;108659;1259;58215;-90
2023/08/14 01:40:00;;;;;;;;;;;;;;;16.97;74.22;101615.73;108621;1260;58610;-90
2023/08/14 01:42:30;;;;;;;;;;;;;;;16.91;74.30;101612.30;108759;1259;123450;-90
2023/08/14 01:45:00;;;;;;;;;;;;;;;16.88;74.46;101620.08;108832;1258;67385;-90
2023/08/14 01:47:29;;;;;;;;;;;;;;;16.85;74.54;101617.89;108675;1259;124049;-90
2023/08/14 01:49:59;;;;;;;;;;;;;;;16.82;74.67;101624.58;108796;1259;58219;-90
2023/08/14 01:52:27;;;;;;;;;;;;;;;16.78;74.61;101627.88;108742;1260;124742;-90
2023/08/14 01:55:01;;;;;;;;;;;;;;;16.75;74.75;101633.34;108806;1259;75173;-90
2023/08/14 01:57:29;;;;;;;;;;;;;;;16.73;74.79;101633.48;108723;1259;65775;-91
2023/08/14 02:00:05;;;;;;;;;;;;;;;16.70;74.85;101635.91;108625;1263;125348;-91
2023/08/14 02:02:46;;;;;;;;;;;;;;;16.66;74.91;101628.23;108729;1259;57945;-89
2023/08/14 02:05:34;;;;;;;;;;;;;;;16.61;74.98;101622.69;108621;1259;124159;-88
2023/08/14 02:08:01;;;;;;;;;;;;;;;16.58;75.00;101622.63;108588;1259;73870;-88
2023/08/14 02:10:30;;;;;;;;;;;;;;;16.55;75.08;101629.32;108588;1259;124743;-91
2023/08/14 02:12:57;;;;;;;;;;;;;;;16.52;75.19;101629.11;108729;1259;73546;-89
2023/08/14 02:15:24;;;;;;;;;;;;;;;16.48;75.13;101626.58;108660;1262;58567;-89
2023/08/14 02:17:51;;;;;;;;;;;;;;;16.47;75.30;101629.91;108637;1259;124794;-89
2023/08/14 02:20:20;;;;;;;;;;;;;;;16.45;75.41;101627.41;108500;1264;73647;-89
2023/08/14 02:22:47;;;;;;;;;;;;;;;16.45;75.50;101626.70;108503;1259;125271;-89
2023/08/14 02:25:14;;;;;;;;;;;;;;;16.43;75.53;101631.10;108683;1256;72805;-88
2023/08/14 02:27:41;;;;;;;;;;;;;;;16.41;75.52;101632.30;107604;1271;59663;-88
2023/08/14 02:30:09;;;;;;;;;;;;;;;16.38;75.62;101629.43;108077;1254;124365;-89
2023/08/14 02:32:36;;;;;;;;;;;;;;;16.36;75.75;101626.21;108191;1254;72402;-91
2023/08/14 02:35:04;;;;;;;;;;;;;;;16.34;75.74;101631.32;107625;1262;125054;-90
2023/08/14 02:37:35;;;;;;;;;;;;;;;16.32;75.82;101632.00;107827;1254;72709;-89
2023/08/14 02:40:03;;;;;;;;;;;;;;;16.29;75.88;101633.90;107620;1256;61785;-89
2023/08/14 02:42:32;;;;;;;;;;;;;;;16.26;75.85;101635.61;108739;1256;124156;-89
2023/08/14 02:44:59;;;;;;;;;;;;;;;16.22;75.99;101630.96;108856;1254;72677;-90
2023/08/14 02:47:26;;;;;;;;;;;;;;;16.21;76.00;101632.88;108813;1254;124756;-89
2023/08/14 02:49:53;;;;;;;;;;;;;;;16.18;76.08;101631.94;108844;1254;71439;-90
2023/08/14 02:52:20;;;;;;;;;;;;;;;16.16;76.17;101632.80;108844;1256;125078;-90
2023/08/14 02:54:50;;;;;;;;;;;;;;;16.13;76.24;101633.83;109048;1254;58585;-90
2023/08/14 02:57:20;;;;;;;;;;;;;;;16.11;76.27;101635.58;109011;1254;71732;-90
2023/08/14 02:59:49;;;;;;;;;;;;;;;16.10;76.33;101635.70;108874;1261;124911;-89
2023/08/14 03:02:19;;;;;;;;;;;;;;;16.08;76.44;101637.10;108300;1254;72041;-89
2023/08/14 03:04:49;;;;;;;;;;;;;;;16.06;76.50;101635.84;108340;1255;124331;-89
2023/08/14 03:07:16;;;;;;;;;;;;;;;16.05;76.46;101633.69;108442;1256;59895;-89
2023/08/14 03:09:43;;;;;;;;;;;;;;;16.04;76.57;101637.21;108348;1260;71738;-89
2023/08/14 03:12:10;;;;;;;;;;;;;;;16.04;76.58;101639.52;108317;1255;123672;-89
2023/08/14 03:14:38;;;;;;;;;;;;;;;16.04;76.71;101638.80;108120;1254;71463;-89
2023/08/14 03:17:05;;;;;;;;;;;;;;;16.04;76.72;101635.63;107707;1260;124995;-89
2023/08/14 03:19:32;;;;;;;;;;;;;;;16.04;76.75;101638.27;107663;1256;60754;-88
2023/08/14 03:21:59;;;;;;;;;;;;;;;16.03;76.78;101636.66;107762;1261;71803;-89
2023/08/14 03:24:28;;;;;;;;;;;;;;;16.03;76.85;101640.38;107426;1261;124725;-89
2023/08/14 03:26:55;;;;;;;;;;;;;;;16.02;76.90;101645.68;108021;1260;73684;-89
2023/08/14 03:29:22;;;;;;;;;;;;;;;16.01;76.95;101644.97;107783;1261;124314;-89
2023/08/14 03:31:57;;;;;;;;;;;;;;;16.01;77.01;101641.77;108025;1255;59977;-90
2023/08/14 03:34:25;;;;;;;;;;;;;;;16.02;77.07;101637.35;107692;1255;124892;-89
2023/08/14 03:36:52;;;;;;;;;;;;;;;16.02;77.07;101635.75;107960;1255;67082;-89
2023/08/14 03:39:19;;;;;;;;;;;;;;;16.03;77.17;101639.50;108218;1255;73439;-90
2023/08/14 03:41:46;;;;;;;;;;;;;;;16.04;77.24;101641.83;107791;1260;123695;-89
2023/08/14 03:44:15;;;;;;;;;;;;;;;16.06;77.26;101645.94;107946;1256;60707;-89
2023/08/14 03:46:44;;;;;;;;;;;;;;;16.08;77.33;101637.29;107833;1255;124920;-89
2023/08/14 03:49:14;;;;;;;;;;;;;;;16.12;77.45;101634.34;107716;1255;65529;-89
2023/08/14 03:51:41;;;;;;;;;;;;;;;16.16;77.41;101636.34;108033;1256;71521;-89
2023/08/14 03:54:12;;;;;;;;;;;;;;;16.31;77.88;101635.86;107988;1256;124826;-88
2023/08/14 03:56:39;;;;;;;;;;;;;;;16.98;79.68;101631.67;108370;1256;61429;-87
2023/08/14 03:59:06;;;;;;;;;;;;;;;18.14;80.09;101627.95;107970;1256;123546;-90
2023/08/14 04:01:34;;;;;;;;;;;;;;;19.34;79.16;101619.73;108242;1255;66523;-89
2023/08/14 04:04:03;;;;;;;;;;;;;;;20.46;77.39;101621.59;108831;1256;72387;-89
2023/08/14 04:06:36;;;;;;;;;;;;;;;21.51;75.75;101624.58;108821;1255;125218;-88
2023/08/14 04:09:09;;;;;;;;;;;;;;;22.55;74.06;101627.66;108490;1257;61183;-89
2023/08/14 04:11:51;;;;;;;;;;;;;;;23.51;72.08;101617.90;108296;1255;123351;-87
2023/08/14 04:14:18;;;;;;;;;;;;;;;24.54;70.15;101620.48;108443;1256;66607;-90
2023/08/14 04:16:46;;;;;;;;;;;;;;;25.43;68.28;101625.48;108061;1263;124496;-89
2023/08/14 04:19:15;;;;;;;;;;;;;;;26.24;66.71;101628.02;108255;1261;58808;-89
2023/08/14 04:21:42;;;;;;;;;;;;;;;27.00;64.76;101624.16;108217;1260;60227;-90
2023/08/14 04:24:09;;;;;;;;;;;;;;;27.74;63.39;101627.09;108002;1256;124497;-91
2023/08/14 04:26:38;;;;;;;;;;;;;;;28.38;61.85;101625.86;109137;1255;58210;-90
2023/08/14 04:29:08;;;;;;;;;;;;;;;29.04;60.37;101629.41;109025;1255;123953;-89
2023/08/14 04:31:35;;;;;;;;;;;;;;;29.66;58.96;101630.83;109048;1256;59005;-90
2023/08/14 04:34:02;;;;;;;;;;;;;;;30.26;57.63;101633.89;109265;1256;58517;-90
2023/08/14 04:36:33;;;;;;;;;;;;;;;30.84;56.19;101633.52;109134;1255;124783;-90
2023/08/14 04:39:00;;;;;;;;;;;;;;;31.35;54.85;101632.23;109067;1256;58594;-90
2023/08/14 04:41:27;;;;;;;;;;;;;;;31.80;53.66;101629.00;108740;1255;124946;-91
2023/08/14 04:43:59;;;;;;;;;;;;;;;32.33;52.55;101632.79;108989;1261;58482;-89
2023/08/14 04:46:30;;;;;;;;;;;;;;;32.85;51.38;101634.75;108787;1255;124414;-90
2023/08/14 04:48:59;;;;;;;;;;;;;;;33.43;50.17;101637.02;109052;1256;66031;-89
2023/08/14 04:51:26;;;;;;;;;;;;;;;33.82;48.80;101638.06;108860;1255;66202;-90
2023/08/14 04:53:57;;;;;;;;;;;;;;;34.23;47.96;101641.85;108849;1256;124267;-90
2023/08/14 04:56:30;;;;;;;;;;;;;;;34.78;47.15;101643.93;108951;1255;58239;-91
2023/08/14 04:59:00;;;;;;;;;;;;;;;35.42;46.10;101637.12;108798;1255;124565;-91
2023/08/14 05:01:28;;;;;;;;;;;;;;;35.71;44.89;101641.05;109061;1256;64211;-90
2023/08/14 05:04:08;;;;;;;;;;;;;;;35.99;44.06;101642.28;109143;1255;58513;-90
2023/08/14 05:06:35;;;;;;;;;;;;;;;36.45;43.18;101637.50;108622;1255;124057;-90
2023/08/14 05:09:12;;;;;;;;;;;;;;;36.72;42.18;101633.23;108185;1256;59239;-89
2023/08/14 05:11:43;;;;;;;;;;;;;;;37.01;41.58;101627.86;108484;1254;123847;-90
2023/08/14 05:14:18;;;;;;;;;;;;;;;37.49;41.15;101628.30;109145;1255;65881;-91
2023/08/14 05:16:47;;;;;;;;;;;;;;;37.91;40.02;101629.75;108866;1256;125214;-90
2023/08/14 05:19:14;;;;;;;;;;;;;;;38.11;39.36;101626.42;109181;1254;62813;-91
2023/08/14 05:21:57;;;;;;;;;;;;;;;38.38;38.69;101625.80;109174;1254;58618;-90
2023/08/14 05:24:31;;;;;;;;;;;;;;;38.67;38.13;101623.88;108928;1254;123232;-91
2023/08/14 05:27:26;;;;;;;;;;;;;;;39.09;37.56;101619.52;107927;1255;64229;-90
2023/08/14 05:29:53;;;;;;;;;;;;;;;39.22;36.62;101615.19;107482;1254;124039;-91
2023/08/14 05:32:27;;;;;;;;;;;;;;;38.83;36.22;101612.83;107800;1257;63835;-88
2023/08/14 05:34:58;;;;;;;;;;;;;;;37.66;35.79;101614.01;107954;1255;124493;-89
2023/08/14 05:37:34;;;;;;;;;;;;;;;36.20;35.89;101615.59;108183;1255;58941;-89
2023/08/14 05:40:10;;;;;;;;;;;;;;;34.65;36.44;101614.64;107968;1254;66244;-87
2023/08/14 05:42:42;;;;;;;;;;;;;;;33.24;37.19;101619.70;107883;1254;124054;-88
2023/08/14 05:45:09;;;;;;;;;;;;;;;32.01;38.16;101621.71;107761;1260;63882;-89
2023/08/14 05:48:08;;;;;;;;;;;;;;;30.99;39.19;101621.58;107762;1258;125318;-89
2023/08/14 05:50:35;;;;;;;;;;;;;;;29.99;40.19;101618.59;108709;1256;58344;-89
2023/08/14 05:53:07;;;;;;;;;;;;;;;29.21;41.11;101620.09;108736;1254;124746;-89
2023/08/14 05:55:41;;;;;;;;;;;;;;;28.54;41.89;101615.36;109064;1254;59090;-89
2023/08/14 05:58:09;;;;;;;;;;;;;;;27.91;42.67;101624.19;109106;1254;65676;-90
2023/08/14 06:00:45;;;;;;;;;;;;;;;27.39;43.47;101628.74;108891;1256;122879;-90
2023/08/14 06:03:13;;;;;;;;;;;;;;;26.93;44.05;101628.48;109072;1260;61110;-89
2023/08/14 06:05:54;;;;;;;;;;;;;;;26.53;44.88;101636.80;108575;1259;124081;-90
2023/08/14 06:08:21;;;;;;;;;;;;;;;26.25;45.42;101636.29;109128;1255;65556;-90
2023/08/14 06:10:50;;;;;;;;;;;;;;;25.97;45.97;101636.64;108919;1259;124479;-90
2023/08/14 06:13:22;;;;;;;;;;;;;;;25.70;46.37;101637.45;109062;1255;58111;-90
2023/08/14 06:15:49;;;;;;;;;;;;;;;25.45;46.83;101637.48;108918;1254;61187;-90
2023/08/14 06:18:19;;;;;;;;;;;;;;;25.19;47.26;101639.14;107664;1261;123051;-89
2023/08/14 06:20:46;;;;;;;;;;;;;;;24.96;47.66;101636.02;107982;1255;65850;-89
2023/08/14 06:23:13;;;;;;;;;;;;;;;24.72;48.07;101636.84;107779;1254;124791;-91
2023/08/14 06:25:40;;;;;;;;;;;;;;;24.49;48.45;101636.04;108052;1253;60546;-87
2023/08/14 06:28:07;;;;;;;;;;;;;;;24.31;48.94;101635.45;107650;1254;59312;-88
2023/08/14 06:30:37;;;;;;;;;;;;;;;24.18;49.24;101632.09;107569;1254;123772;-91
2023/08/14 06:33:04;;;;;;;;;;;;;;;24.08;49.78;101630.30;107507;1257;66338;-88
2023/08/14 06:35:31;;;;;;;;;;;;;;;23.98;50.13;101631.36;107575;1256;124355;-89
2023/08/14 06:38:01;;;;;;;;;;;;;;;23.90;50.49;101639.90;107959;1258;60387;-89
2023/08/14 06:40:28;;;;;;;;;;;;;;;23.86;50.97;101641.94;107655;1256;124203;-89
2023/08/14 06:42:57;;;;;;;;;;;;;;;23.81;51.06;101642.56;107380;1257;74949;-92
2023/08/14 06:45:29;;;;;;;;;;;;;;;23.74;51.14;101637.61;107920;1256;65812;-90
2023/08/14 06:47:56;;;;;;;;;;;;;;;23.69;51.74;101637.34;107937;1256;126479;-88
2023/08/14 06:50:23;;;;;;;;;;;;;;;23.69;51.95;101639.31;107804;1254;60303;-89
2023/08/14 06:52:53;;;;;;;;;;;;;;;23.71;52.04;101640.02;107706;1269;124801;-90
2023/08/14 06:55:20;;;;;;;;;;;;;;;23.69;52.18;101642.71;107834;1254;72310;-90
2023/08/14 06:57:48;;;;;;;;;;;;;;;23.67;52.35;101647.59;107509;1260;67237;-88
2023/08/14 07:00:15;;;;;;;;;;;;;;;23.66;52.33;101645.27;107535;1255;122711;-88
2023/08/14 07:02:46;;;;;;;;;;;;;;;23.67;52.38;101648.65;107710;1260;60482;-89
2023/08/14 07:05:14;;;;;;;;;;;;;;;23.69;52.48;101646.48;107758;1256;124191;-89
2023/08/14 07:07:41;;;;;;;;;;;;;;;23.71;52.66;101645.91;108226;1256;72615;-89
2023/08/14 07:10:14;;;;;;;;;;;;;;;23.72;52.63;101647.33;108147;1262;66869;-89
2023/08/14 07:12:41;;;;;;;;;;;;;;;23.76;52.91;101644.76;108078;1256;123784;-89
2023/08/14 07:15:29;;;;;;;;;;;;;;;23.79;52.83;101648.50;107844;1256;59341;-89
2023/08/14 07:17:58;;;;;;;;;;;;;;;23.80;52.70;101649.75;107758;1256;124195;-88
2023/08/14 07:20:28;;;;;;;;;;;;;;;23.83;52.77;101651.69;107603;1261;72297;-87
2023/08/14 07:23:01;;;;;;;;;;;;;;;23.85;52.94;101645.55;107477;1254;124387;-88
2023/08/14 07:25:29;;;;;;;;;;;;;;;23.92;52.92;101653.86;107732;1256;73203;-88
2023/08/14 07:27:56;;;;;;;;;;;;;;;23.95;53.04;101652.55;107709;1256;60494;-88
2023/08/14 07:30:31;;;;;;;;;;;;;;;24.00;53.04;101648.36;107714;1254;124494;-87
2023/08/14 07:33:01;;;;;;;;;;;;;;;24.02;53.06;101643.30;107837;1260;72619;-88
2023/08/14 07:35:29;;;;;;;;;;;;;;;24.07;53.01;101648.96;107940;1262;122825;-85
2023/08/14 07:37:58;;;;;;;;;;;;;;;24.10;53.10;101650.16;108909;1256;71114;-86
2023/08/14 07:40:28;;;;;;;;;;;;;;;24.13;53.04;101650.29;108954;1255;122776;-89
2023/08/14 07:43:08;;;;;;;;;;;;;;;24.14;53.09;101650.27;108904;1256;59972;-89
2023/08/14 07:45:36;;;;;;;;;;;;;;;24.17;53.18;101648.59;108984;1260;73827;-90
2023/08/14 07:48:03;;;;;;;;;;;;;;;24.20;53.40;101651.41;108759;1256;122823;-89
2023/08/14 07:50:30;;;;;;;;;;;;;;;24.24;53.33;101647.92;108958;1256;73072;-89
2023/08/14 07:52:58;;;;;;;;;;;;;;;24.27;53.30;101646.83;108917;1256;123210;-89
2023/08/14 07:55:25;;;;;;;;;;;;;;;24.30;53.50;101649.64;109014;1260;59896;-89
2023/08/14 07:57:55;;;;;;;;;;;;;;;24.32;53.58;101649.42;109050;1258;74285;-88
2023/08/14 08:00:53;;;;;;;;;;;;;;;24.34;53.73;101644.00;108800;1256;123967;-89
2023/08/14 08:03:37;;;;;;;;;;;;;;;24.41;53.71;101637.79;108465;1263;73576;-89
2023/08/14 08:06:05;;;;;;;;;;;;;;;24.44;53.85;101636.64;108367;1262;123927;-90
2023/08/14 08:08:32;;;;;;;;;;;;;;;24.48;53.75;101636.39;108297;1270;59813;-89
2023/08/14 08:11:01;;;;;;;;;;;;;;;24.52;53.91;101635.08;108386;1266;124052;-89
2023/08/14 08:13:28;;;;;;;;;;;;;;;24.56;54.09;101633.21;108325;1262;67171;-89
2023/08/14 08:15:55;;;;;;;;;;;;;;;24.60;53.98;101636.36;108527;1264;71357;-89
2023/08/14 08:18:22;;;;;;;;;;;;;;;24.66;54.12;101637.70;108256;1270;125313;-89
2023/08/14 08:20:58;;;;;;;;;;;;;;;24.71;54.13;101637.42;108419;1263;58732;-89
2023/08/14 08:23:34;;;;;;;;;;;;;;;24.76;53.96;101634.61;108388;1265;123673;-89
2023/08/14 08:26:12;;;;;;;;;;;;;;;24.80;53.75;101633.45;108449;1263;65822;-90
2023/08/14 08:28:41;;;;;;;;;;;;;;;24.84;53.70;101632.48;108097;1267;127076;-89
2023/08/14 08:31:08;;;;;;;;;;;;;;;24.88;53.68;101637.61;108165;1264;58571;-86
2023/08/14 08:33:38;;;;;;;;;;;;;;;24.92;53.38;101639.70;108463;1262;58425;-85
2023/08/14 08:36:10;;;;;;;;;;;;;;;24.95;53.24;101637.64;108193;1264;124971;-86
2023/08/14 08:38:42;;;;;;;;;;;;;;;25.00;53.12;101637.56;108229;1267;65790;-91
2023/08/14 08:41:09;;;;;;;;;;;;;;;25.03;52.98;101631.77;108574;1254;124497;-90
2023/08/14 08:43:41;;;;;;;;;;;;;;;25.07;53.08;101632.73;109124;1254;58256;-92
2023/08/14 08:46:09;;;;;;;;;;;;;;;25.10;53.04;101639.14;107810;1254;61019;-89
2023/08/14 08:48:37;;;;;;;;;;;;;;;25.12;52.89;101636.39;107783;1259;123851;-89
2023/08/14 08:51:04;;;;;;;;;;;;;;;25.17;52.88;101634.67;107943;1259;68083;-89
2023/08/14 08:53:31;;;;;;;;;;;;;;;25.20;52.05;101637.84;107873;1254;123818;-88
2023/08/14 08:55:57;;;;;;;;;;;;;;;25.23;52.07;101636.71;107818;1254;60524;-89
2023/08/14 08:58:24;;;;;;;;;;;;;;;25.27;51.62;101633.96;107887;1254;124704;-88
2023/08/14 09:00:54;;;;;;;;;;;;;;;25.31;51.56;101631.70;108229;1254;74419;-89
2023/08/14 09:03:21;;;;;;;;;;;;;;;25.36;51.56;101627.65;109018;1260;65995;-89
2023/08/14 09:05:48;;;;;;;;;;;;;;;25.38;51.09;101629.74;109026;1253;123643;-90
2023/08/14 09:08:15;;;;;;;;;;;;;;;25.40;50.88;101625.39;108964;1254;58634;-90
2023/08/14 09:10:42;;;;;;;;;;;;;;;25.43;51.07;101626.77;108927;1255;124405;-90
2023/08/14 09:13:09;;;;;;;;;;;;;;;25.44;50.93;101624.75;109065;1260;74345;-89
2023/08/14 09:15:45;;;;;;;;;;;;;;;25.45;50.60;101626.72;109004;1254;67011;-89
2023/08/14 09:18:12;;;;;;;;;;;;;;;25.48;50.61;101627.38;108920;1254;124927;-89
2023/08/14 09:20:39;;;;;;;;;;;;;;;25.50;50.33;101623.73;109314;1259;57927;-90
2023/08/14 09:23:10;;;;;;;;;;;;;;;25.51;50.21;101619.02;109370;1254;122796;-90
2023/08/14 09:25:37;;;;;;;;;;;;;;;25.52;50.28;101619.73;109383;1260;73319;-90
2023/08/14 09:28:06;;;;;;;;;;;;;;;25.54;50.14;101620.77;109478;1258;66561;-90
2023/08/14 09:30:33;;;;;;;;;;;;;;;25.56;50.04;101618.00;109401;1254;124250;-89
2023/08/14 09:32:59;;;;;;;;;;;;;;;25.57;50.05;101621.75;109481;1254;57764;-90
2023/08/14 09:35:26;;;;;;;;;;;;;;;25.59;49.96;101620.81;109401;1254;123289;-89
2023/08/14 09:37:53;;;;;;;;;;;;;;;25.62;49.89;101618.06;109278;1258;72999;-89
2023/08/14 09:40:20;;;;;;;;;;;;;;;25.64;49.87;101620.52;109213;1254;65924;-89
2023/08/14 09:42:48;;;;;;;;;;;;;;;25.66;49.95;101620.83;108981;1254;124525;-90
2023/08/14 09:45:18;;;;;;;;;;;;;;;25.68;49.78;101620.98;109197;1259;59422;-89
2023/08/14 09:47:46;;;;;;;;;;;;;;;25.70;49.86;101620.55;109154;1254;123119;-90
2023/08/14 09:50:13;;;;;;;;;;;;;;;25.73;49.83;101612.39;109162;1254;72380;-89
2023/08/14 09:52:40;;;;;;;;;;;;;;;25.74;49.45;101613.27;109075;1254;124330;-89
2023/08/14 09:55:07;;;;;;;;;;;;;;;25.76;49.56;101615.91;109199;1254;71330;-89
2023/08/14 09:57:34;;;;;;;;;;;;;;;25.78;49.53;101616.95;108956;1269;58620;-88
2023/08/14 10:00:01;;;;;;;;;;;;;;;25.80;49.60;101611.14;109035;1254;122631;-89
2023/08/14 10:02:28;;;;;;;;;;;;;;;25.82;49.41;101615.23;108797;1258;73840;-88
2023/08/14 10:04:55;;;;;;;;;;;;;;;25.85;49.25;101614.44;108092;1253;122732;-88
2023/08/14 10:07:32;;;;;;;;;;;;;;;25.88;49.04;101615.27;108262;1254;71499;-88
2023/08/14 10:10:03;;;;;;;;;;;;;;;25.89;48.76;101610.20;108070;1253;60561;-88
2023/08/14 10:12:32;;;;;;;;;;;;;;;25.90;48.54;101606.58;107962;1254;124338;-88
2023/08/14 10:14:59;;;;;;;;;;;;;;;25.91;48.42;101606.36;107947;1254;73174;-89
2023/08/14 10:17:29;;;;;;;;;;;;;;;25.92;48.40;101606.73;107727;1259;124685;-89
2023/08/14 10:19:56;;;;;;;;;;;;;;;25.95;48.13;101601.27;107771;1261;73211;-89
2023/08/14 10:22:23;;;;;;;;;;;;;;;25.97;48.15;101602.46;107778;1254;60350;-89
2023/08/14 10:24:49;;;;;;;;;;;;;;;26.01;48.17;101604.34;107884;1253;123897;-89
2023/08/14 10:27:17;;;;;;;;;;;;;;;26.04;48.31;101599.98;107896;1254;73994;-87
2023/08/14 10:29:44;;;;;;;;;;;;;;;26.07;48.15;101597.91;107653;1253;124297;-90
2023/08/14 10:32:10;;;;;;;;;;;;;;;26.10;48.18;101599.62;107909;1254;72718;-87
2023/08/14 10:34:37;;;;;;;;;;;;;;;26.14;48.16;101599.31;107794;1260;123966;-88
2023/08/14 10:40:14;;;;;;;;;;;;;;;26.14;48.04;101594.66;109607;1248;72943;31
2023/08/14 10:43:04;;;;;;;;;;;;;;;26.15;48.00;101591.21;106911;1262;66953;-88
2023/08/14 10:45:44;;;;;;;;;;;;;;;26.20;47.53;101585.14;106965;1260;72600;-88
2023/08/14 10:48:20;;;;;;;;;;;;;;;26.22;47.64;101586.34;106768;1262;124048;-88
2023/08/14 10:50:48;;;;;;;;;;;;;;;26.26;47.59;101582.83;107015;1261;60533;-89
2023/08/14 10:53:23;;;;;;;;;;;;;;;26.28;47.63;101580.81;107121;1260;124223;-88
2023/08/14 10:55:53;;;;;;;;;;;;;;;26.29;47.15;101581.66;107022;1260;67189;-88
2023/08/14 10:58:40;;;;;;;;;;;;;;;26.33;47.29;101579.77;107193;1260;71302;-89
2023/08/14 11:01:08;;;;;;;;;;;;;;;26.38;47.21;101581.06;107054;1259;60493;-89
2023/08/14 11:03:56;;;;;;;;;;;;;;;26.42;47.22;101582.93;106833;1262;60355;-89
2023/08/14 11:06:45;;;;;;;;;;;;;;;26.46;47.20;101579.20;106997;1261;122710;-89
2023/08/14 11:09:12;;;;;;;;;;;;;;;26.50;47.19;101581.27;106987;1265;67164;-89
2023/08/14 11:11:48;;;;;;;;;;;;;;;26.53;46.98;101573.45;106870;1262;123897;-89
2023/08/14 11:14:17;;;;;;;;;;;;;;;26.70;46.90;101568.48;107024;1261;60471;-89
2023/08/14 11:17:03;;;;;;;;;;;;;;;26.99;47.01;101561.50;106836;1261;124344;-89
2023/08/14 11:19:51;;;;;;;;;;;;;;;27.34;46.35;101558.80;107000;1261;73928;-89
2023/08/14 11:22:25;;;;;;;;;;;;;;;27.59;46.01;101554.20;106858;1260;67068;-91
2023/08/14 11:25:02;;;;;;;;;;;;;;;27.67;45.18;101552.84;106792;1260;124028;-89
2023/08/14 11:27:30;;;;;;;;;;;;;;;27.64;45.04;101548.98;106890;1261;59820;-89
2023/08/14 11:30:05;;;;;;;;;;;;;;;27.55;44.93;101545.33;106791;1260;124865;-88
2023/08/14 11:32:32;;;;;;;;;;;;;;;27.44;45.09;101541.91;106859;1261;73807;-89
2023/08/14 11:35:03;;;;;;;;;;;;;;;27.34;45.02;101539.73;106814;1260;124140;-90
2023/08/14 11:37:39;;;;;;;;;;;;;;;27.25;44.87;101538.55;106909;1261;74020;-90
2023/08/14 11:40:10;;;;;;;;;;;;;;;27.21;44.57;101539.71;107020;1261;60375;-89
2023/08/14 11:42:41;;;;;;;;;;;;;;;27.20;44.56;101534.89;104878;1261;6213813;-88
2023/08/14 11:45:24;;;;;;;;;;;;;;;27.19;44.87;101534.58;106828;1260;60496;-89
2023/08/14 11:47:51;;;;;;;;;;;;;;;27.14;44.82;101529.12;107190;1260;123688;-88
2023/08/14 11:50:27;;;;;;;;;;;;;;;27.11;45.09;101527.98;107028;1263;67090;-88
2023/08/14 11:53:14;;;;;;;;;;;;;;;27.06;45.00;101531.92;106820;1265;124153;-89
2023/08/14 11:56:30;;;;;;;;;;;;;;;27.05;44.53;101530.69;107154;1261;59802;-89
2023/08/14 11:59:23;;;;;;;;;;;;;;;27.06;44.44;101533.89;107042;1260;124620;-88
2023/08/14 12:01:59;;;;;;;;;;;;;;;27.03;44.70;101521.55;107045;1259;72456;-90
2023/08/14 12:04:40;;;;;;;;;;;;;;;27.03;44.67;101526.80;106883;1261;65732;-89
2023/08/14 12:07:17;;;;;;;;;;;;;;;27.02;44.74;101526.98;106746;1264;71411;-88
2023/08/14 12:09:53;;;;;;;;;;;;;;;27.03;44.78;101530.03;106709;1261;58453;-88
2023/08/14 12:12:26;;;;;;;;;;;;;;;27.08;44.64;101535.63;106867;1260;123700;-89
2023/08/14 12:14:53;;;;;;;;;;;;;;;27.13;44.38;101536.90;107569;1260;72562;-88
2023/08/14 12:17:20;;;;;;;;;;;;;;;27.20;44.40;101529.86;107509;1265;123933;-88
2023/08/14 12:19:59;;;;;;;;;;;;;;;27.31;44.63;101525.39;107181;1259;71145;-87
2023/08/14 12:22:29;;;;;;;;;;;;;;;27.50;44.42;101525.28;107324;1260;60215;-87
2023/08/14 12:24:57;;;;;;;;;;;;;;;27.70;44.37;101525.35;107337;1260;123619;-87
2023/08/14 12:27:26;;;;;;;;;;;;;;;27.88;44.13;101524.19;107512;1262;74168;-87
2023/08/14 12:29:55;;;;;;;;;;;;;;;27.97;43.94;101532.20;107475;1261;124189;-87
2023/08/14 12:32:22;;;;;;;;;;;;;;;28.01;43.63;101530.79;107679;1260;71846;-88
2023/08/14 12:34:55;;;;;;;;;;;;;;;28.09;43.42;101528.70;106961;1261;123903;-88
2023/08/14 12:37:59;;;;;;;;;;;;;;;28.28;43.26;101528.39;107161;1261;58602;-88
2023/08/14 12:44:29;;;;;;;;;;;;;;;28.65;42.81;101524.87;107004;1260;60669;-90
2023/08/14 12:46:58;;;;;;;;;;;;;;;28.78;42.39;101524.55;107021;1259;123929;-89
2023/08/14 12:49:36;;;;;;;;;;;;;;;28.79;41.98;101528.64;106873;1261;60408;-88